Time;durP1;ratioP1;P1;durP2;ratioP2;P2;SDS_P1;SDS_P2;PMS_P1;PMS_P2;Temp;Humidity;BMP_temperature;BMP_pressure;BME280_temperature;BME280_humidity;BME280_pressure;Samples;Min_cycle;Max_cycle;Signal;HPM_P1;HPM_P2
2022/11/11 00:01:24;;;;;;;;;;;;;;;13.45;100.00;100144.56;5018905;28;19938;-43
2022/11/11 00:03:53;;;;;;;;;;;;;;;13.42;100.00;100144.66;5019537;28;20532;-43
2022/11/11 00:06:18;;;;;;;;;;;;;;;13.55;100.00;100135.69;5019452;28;19925;-43
2022/11/11 00:08:45;;;;;;;;;;;;;;;13.57;100.00;100140.81;5017340;28;19951;-43
2022/11/11 00:11:11;;;;;;;;;;;;;;;13.73;100.00;100149.91;5019620;28;19925;-43
2022/11/11 00:13:37;;;;;;;;;;;;;;;13.58;100.00;100150.28;5019435;28;19925;-43
2022/11/11 00:16:05;;;;;;;;;;;;;;;13.15;100.00;100146.16;5020060;28;19937;-43
2022/11/11 00:26:42;;;;;;;;;;;;;;;13.48;100.00;100169.50;5018089;28;19928;-43
2022/11/11 00:29:08;;;;;;;;;;;;;;;13.78;100.00;100168.75;5018742;28;19921;-43
2022/11/11 00:31:33;;;;;;;;;;;;;;;13.50;100.00;100167.75;5018515;28;19932;-43
2022/11/11 00:33:59;;;;;;;;;;;;;;;13.47;100.00;100167.81;5019703;28;19983;-43
2022/11/11 00:36:24;;;;;;;;;;;;;;;13.64;100.00;100164.78;5018688;28;19921;-43
2022/11/11 00:38:51;;;;;;;;;;;;;;;13.50;100.00;100178.97;5033830;28;19917;-43
2022/11/11 00:41:21;;;;;;;;;;;;;;;13.70;100.00;100170.66;5017504;28;20550;-43
2022/11/11 00:43:46;;;;;;;;;;;;;;;13.30;100.00;100181.19;5018794;28;19929;-43
2022/11/11 00:51:40;;;;;;;;;;;;;;;13.47;100.00;100173.00;5031888;28;19924;-42
2022/11/11 00:54:06;;;;;;;;;;;;;;;13.49;100.00;100173.81;5017158;28;19925;-42
2022/11/11 00:56:31;;;;;;;;;;;;;;;13.58;100.00;100177.00;5017571;28;19928;-42
2022/11/11 00:58:56;;;;;;;;;;;;;;;13.40;100.00;100172.31;5017206;28;20280;-42
2022/11/11 01:01:22;;;;;;;;;;;;;;;13.28;100.00;100177.78;5018363;28;19967;-42
2022/11/11 01:03:47;;;;;;;;;;;;;;;13.52;100.00;100187.50;5019158;28;19924;-42
2022/11/11 01:06:12;;;;;;;;;;;;;;;13.81;100.00;100179.00;5017845;28;19927;-42
2022/11/11 01:08:38;;;;;;;;;;;;;;;13.79;100.00;100191.13;5018389;28;20908;-43
2022/11/11 01:11:03;;;;;;;;;;;;;;;13.59;100.00;100190.81;5016690;28;20378;-43
2022/11/11 01:13:29;;;;;;;;;;;;;;;12.76;100.00;100196.16;5017607;28;19920;-42
2022/11/11 01:16:02;;;;;;;;;;;;;;;13.05;100.00;100202.44;5019292;28;19934;-42
2022/11/11 01:18:28;;;;;;;;;;;;;;;13.66;100.00;100194.97;5018891;28;19920;-42
2022/11/11 01:21:06;;;;;;;;;;;;;;;13.13;100.00;100194.47;5021090;28;19932;-42
2022/11/11 01:23:32;;;;;;;;;;;;;;;13.42;100.00;100190.38;5021834;28;20382;-42
2022/11/11 01:26:04;;;;;;;;;;;;;;;13.32;100.00;100192.31;5023218;28;19917;-42
2022/11/11 01:28:30;;;;;;;;;;;;;;;13.35;100.00;100193.13;5022388;28;20946;-42
2022/11/11 01:31:06;;;;;;;;;;;;;;;13.36;100.00;100204.31;5022635;28;19975;-42
2022/11/11 01:33:31;;;;;;;;;;;;;;;13.28;100.00;100199.34;5021891;28;20015;-42
2022/11/11 01:36:01;;;;;;;;;;;;;;;13.35;100.00;100198.28;5021598;28;20015;-42
2022/11/11 01:38:26;;;;;;;;;;;;;;;13.47;100.00;100194.56;5022132;28;19921;-43
2022/11/11 01:40:52;;;;;;;;;;;;;;;13.50;100.00;100198.78;5022198;28;19917;-42
2022/11/11 01:43:19;;;;;;;;;;;;;;;13.11;100.00;100204.00;5021349;28;19921;-42
2022/11/11 01:45:44;;;;;;;;;;;;;;;13.44;100.00;100198.97;5023282;28;20440;-42
2022/11/11 01:51:13;;;;;;;;;;;;;;;13.49;100.00;100197.09;5020567;28;19951;-43
2022/11/11 01:53:38;;;;;;;;;;;;;;;13.04;100.00;100192.09;5021619;28;19921;-42
2022/11/11 01:56:03;;;;;;;;;;;;;;;13.37;100.00;100182.75;5022230;28;19979;-42
2022/11/11 01:58:28;;;;;;;;;;;;;;;13.37;100.00;100181.00;5021103;28;19925;-42
2022/11/11 02:00:54;;;;;;;;;;;;;;;13.42;100.00;100185.22;5020420;28;19925;-42
2022/11/11 02:03:20;;;;;;;;;;;;;;;13.46;100.00;100184.25;5021180;28;20825;-42
2022/11/11 02:05:45;;;;;;;;;;;;;;;13.52;100.00;100181.50;5020663;28;19967;-42
2022/11/11 02:08:11;;;;;;;;;;;;;;;13.85;100.00;100181.53;5020527;28;19921;-42
2022/11/11 02:10:37;;;;;;;;;;;;;;;13.61;100.00;100194.19;5022600;28;19921;-42
2022/11/11 02:15:46;;;;;;;;;;;;;;;13.63;100.00;100199.34;5022691;28;20439;-42
2022/11/11 02:18:11;;;;;;;;;;;;;;;13.93;100.00;100195.94;5003695;28;19924;-42
2022/11/11 02:20:37;;;;;;;;;;;;;;;13.65;100.00;100203.59;5021440;28;19991;-42
2022/11/11 02:23:02;;;;;;;;;;;;;;;13.59;100.00;100209.78;5021332;28;20029;-42
2022/11/11 02:25:28;;;;;;;;;;;;;;;13.82;100.00;100210.91;5021701;28;20011;-42
2022/11/11 02:27:55;;;;;;;;;;;;;;;13.88;100.00;100205.59;5020222;28;19928;-42
2022/11/11 02:30:21;;;;;;;;;;;;;;;13.85;100.00;100204.84;5019610;28;19935;-42
2022/11/11 02:32:47;;;;;;;;;;;;;;;13.50;100.00;100212.59;5020762;28;19924;-42
2022/11/11 02:35:14;;;;;;;;;;;;;;;13.04;100.00;100220.56;5021762;28;19920;-42
2022/11/11 02:37:40;;;;;;;;;;;;;;;13.46;100.00;100217.91;5021941;28;19925;-42
2022/11/11 02:40:07;;;;;;;;;;;;;;;13.31;100.00;100221.69;5018167;28;19920;-42
2022/11/11 02:42:33;;;;;;;;;;;;;;;13.54;100.00;100213.38;5022504;28;20499;-42
2022/11/11 02:44:58;;;;;;;;;;;;;;;13.61;100.00;100207.16;5020069;28;19921;-42
2022/11/11 02:47:23;;;;;;;;;;;;;;;13.19;100.00;100215.03;5022100;28;19924;-42
2022/11/11 02:49:49;;;;;;;;;;;;;;;13.67;100.00;100207.00;5019129;28;19925;-42
2022/11/11 02:52:14;;;;;;;;;;;;;;;13.46;100.00;100205.81;5021348;28;19917;-42
2022/11/11 02:54:41;;;;;;;;;;;;;;;13.49;100.00;100203.13;5021482;28;19924;-42
2022/11/11 02:57:06;;;;;;;;;;;;;;;13.58;100.00;100202.06;5020876;28;19929;-42
2022/11/11 02:59:32;;;;;;;;;;;;;;;13.19;100.00;100199.53;5020768;28;19928;-42
2022/11/11 03:01:57;;;;;;;;;;;;;;;13.41;100.00;100189.53;5020168;28;19921;-42
2022/11/11 03:04:22;;;;;;;;;;;;;;;13.26;100.00;100185.53;5019386;28;20485;-43
2022/11/11 03:06:47;;;;;;;;;;;;;;;13.44;100.00;100184.28;5019774;28;19961;-42
2022/11/11 03:09:13;;;;;;;;;;;;;;;13.54;100.00;100175.38;5019428;28;19921;-42
2022/11/11 03:11:38;;;;;;;;;;;;;;;13.43;100.00;100182.56;5018747;28;20378;-42
2022/11/11 03:14:03;;;;;;;;;;;;;;;13.36;100.00;100175.84;5020257;28;20351;-42
2022/11/11 03:19:12;;;;;;;;;;;;;;;13.53;100.00;100167.69;5019762;28;19923;-42
2022/11/11 03:21:37;;;;;;;;;;;;;;;13.60;100.00;100157.13;5019773;28;19917;-42
2022/11/11 03:24:03;;;;;;;;;;;;;;;13.47;100.00;100157.47;5020425;28;19917;-42
2022/11/11 03:26:28;;;;;;;;;;;;;;;13.70;100.00;100169.81;5020647;28;19923;-42
2022/11/11 03:28:53;;;;;;;;;;;;;;;13.37;100.00;100180.16;5018131;28;20345;-42
2022/11/11 03:31:19;;;;;;;;;;;;;;;13.32;100.00;100175.09;5019762;28;19921;-42
2022/11/11 03:33:44;;;;;;;;;;;;;;;13.23;100.00;100175.28;5020132;28;20366;-43
2022/11/11 03:36:09;;;;;;;;;;;;;;;13.54;100.00;100169.38;5019758;28;20311;-43
2022/11/11 03:38:34;;;;;;;;;;;;;;;13.52;100.00;100169.41;5017570;28;19917;-43
2022/11/11 03:40:59;;;;;;;;;;;;;;;13.69;100.00;100166.41;5019323;28;19917;-43
2022/11/11 03:43:26;;;;;;;;;;;;;;;13.17;100.00;100170.25;5018619;28;19960;-43
2022/11/11 03:45:52;;;;;;;;;;;;;;;13.45;100.00;100169.59;5020362;28;19917;-43
2022/11/11 03:48:17;;;;;;;;;;;;;;;13.65;100.00;100176.88;5017873;28;19932;-43
2022/11/11 03:50:42;;;;;;;;;;;;;;;13.66;100.00;100182.00;5018858;28;20000;-43
2022/11/11 03:53:07;;;;;;;;;;;;;;;13.44;100.00;100181.69;5018938;28;19928;-43
2022/11/11 03:55:33;;;;;;;;;;;;;;;13.48;100.00;100182.44;5019613;28;19917;-43
2022/11/11 03:57:58;;;;;;;;;;;;;;;13.49;100.00;100176.41;5019722;28;19917;-43
2022/11/11 04:00:24;;;;;;;;;;;;;;;13.49;100.00;100182.44;5019835;28;19920;-43
2022/11/11 04:11:10;;;;;;;;;;;;;;;13.54;100.00;100190.91;5009917;28;20393;-43
2022/11/11 04:16:19;;;;;;;;;;;;;;;13.72;100.00;100189.59;5018169;28;19927;-43
2022/11/11 04:21:43;;;;;;;;;;;;;;;13.73;100.00;100200.81;5016917;28;20059;-43
2022/11/11 04:26:53;;;;;;;;;;;;;;;14.03;100.00;100186.22;5019353;28;19994;-43
2022/11/11 04:29:28;;;;;;;;;;;;;;;13.27;100.00;100197.59;5016621;28;20468;-43
2022/11/11 04:34:41;;;;;;;;;;;;;;;13.60;100.00;100208.03;5017183;28;19928;-43
2022/11/11 04:37:06;;;;;;;;;;;;;;;13.64;100.00;100209.69;5016582;28;19933;-43
2022/11/11 04:42:16;;;;;;;;;;;;;;;13.21;100.00;100208.09;5019384;28;19944;-43
2022/11/11 04:47:25;;;;;;;;;;;;;;;13.19;100.00;100204.69;5017280;28;19990;-43
2022/11/11 04:49:51;;;;;;;;;;;;;;;13.29;100.00;100201.00;5016986;28;20370;-43
2022/11/11 04:52:25;;;;;;;;;;;;;;;12.89;100.00;100201.91;5016377;28;21019;-43
2022/11/11 04:57:34;;;;;;;;;;;;;;;13.29;100.00;100189.81;5019193;28;20034;-43
2022/11/11 04:59:59;;;;;;;;;;;;;;;13.27;100.00;100179.47;5018276;28;20986;-43
2022/11/11 05:05:25;;;;;;;;;;;;;;;13.63;100.00;100176.91;5014249;28;20324;-43
2022/11/11 05:10:34;;;;;;;;;;;;;;;13.07;100.00;100184.25;5019175;28;19967;-43
2022/11/11 05:21:20;;;;;;;;;;;;;;;13.30;100.00;100186.38;5017621;28;19928;-43
2022/11/11 05:26:29;;;;;;;;;;;;;;;13.54;100.00;100193.50;5018139;28;19947;-42
2022/11/11 05:28:54;;;;;;;;;;;;;;;13.60;100.00;100184.75;5018271;28;19925;-43
2022/11/11 05:31:19;;;;;;;;;;;;;;;13.13;100.00;100194.47;5018607;28;19917;-43
2022/11/11 05:33:45;;;;;;;;;;;;;;;13.25;100.00;100195.91;5016958;28;19921;-43
2022/11/11 05:36:10;;;;;;;;;;;;;;;13.46;100.00;100198.03;5017419;28;20008;-43
2022/11/11 05:38:35;;;;;;;;;;;;;;;13.28;100.00;100206.25;5018156;28;19965;-43
2022/11/11 05:41:00;;;;;;;;;;;;;;;13.54;100.00;100200.44;5017011;28;19952;-43
2022/11/11 05:43:25;;;;;;;;;;;;;;;13.52;100.00;100205.63;5016544;28;20240;-43
2022/11/11 05:45:51;;;;;;;;;;;;;;;13.54;100.00;100200.44;5016809;28;19921;-43
2022/11/11 05:48:16;;;;;;;;;;;;;;;13.08;100.00;100209.25;5015969;28;19925;-43
2022/11/11 05:50:41;;;;;;;;;;;;;;;13.39;100.00;100212.88;5018977;28;19927;-43
2022/11/11 05:53:07;;;;;;;;;;;;;;;13.62;100.00;100213.19;5016662;28;19956;-43
2022/11/11 05:55:32;;;;;;;;;;;;;;;13.37;100.00;100204.28;5017849;28;19920;-43
2022/11/11 05:57:57;;;;;;;;;;;;;;;13.80;100.00;100195.44;5010523;28;19925;-43
2022/11/11 06:00:22;;;;;;;;;;;;;;;13.27;100.00;100200.16;5015754;28;19995;-43
2022/11/11 06:02:48;;;;;;;;;;;;;;;13.19;100.00;100196.94;5017332;28;19913;-43
2022/11/11 06:05:13;;;;;;;;;;;;;;;13.41;100.00;100199.91;5017761;28;19958;-43
2022/11/11 06:07:41;;;;;;;;;;;;;;;13.29;100.00;100203.59;5017941;28;19960;-43
2022/11/11 06:13:09;;;;;;;;;;;;;;;13.10;100.00;100197.16;5021014;28;20062;-43
2022/11/11 06:15:37;;;;;;;;;;;;;;;12.51;100.00;100203.59;5022475;28;19921;-43
2022/11/11 06:18:03;;;;;;;;;;;;;;;12.98;100.00;100206.88;5021658;28;19925;-43
2022/11/11 06:20:28;;;;;;;;;;;;;;;13.10;100.00;100210.91;5022079;28;20042;-43
2022/11/11 06:22:56;;;;;;;;;;;;;;;13.31;100.00;100224.28;5021439;28;19913;-43
2022/11/11 06:28:09;;;;;;;;;;;;;;;13.35;100.00;100226.75;5020921;28;19970;-43
2022/11/11 06:30:34;;;;;;;;;;;;;;;13.04;100.00;100238.66;5022111;28;20371;-43
2022/11/11 06:32:59;;;;;;;;;;;;;;;13.16;100.00;100231.47;5021795;28;19917;-43
2022/11/11 06:35:25;;;;;;;;;;;;;;;13.05;100.00;100245.53;5021530;28;20297;-43
2022/11/11 06:37:50;;;;;;;;;;;;;;;13.06;100.00;100249.81;5020729;28;19933;-43
2022/11/11 06:40:15;;;;;;;;;;;;;;;13.06;100.00;100239.47;5018625;28;19971;-43
2022/11/11 06:42:40;;;;;;;;;;;;;;;12.72;100.00;100264.31;5021950;28;19917;-43
2022/11/11 06:45:06;;;;;;;;;;;;;;;13.34;100.00;100261.28;5020385;28;19920;-43
2022/11/11 06:47:31;;;;;;;;;;;;;;;13.45;100.00;100260.16;5021394;28;19921;-43
2022/11/11 06:49:56;;;;;;;;;;;;;;;13.55;100.00;100266.84;5018338;28;19917;-43
2022/11/11 06:52:21;;;;;;;;;;;;;;;13.14;100.00;100268.63;5019351;28;19979;-43
2022/11/11 06:54:47;;;;;;;;;;;;;;;13.16;100.00;100274.63;5021706;28;19928;-43
2022/11/11 06:57:12;;;;;;;;;;;;;;;13.12;100.00;100280.72;5021285;28;19921;-43
2022/11/11 06:59:37;;;;;;;;;;;;;;;13.51;100.00;100278.16;5020595;28;19924;-43
2022/11/11 07:02:02;;;;;;;;;;;;;;;13.21;100.00;100284.84;5021725;28;19917;-43
2022/11/11 07:04:27;;;;;;;;;;;;;;;13.33;100.00;100290.63;5021243;28;19929;-43
2022/11/11 07:06:53;;;;;;;;;;;;;;;13.70;100.00;100289.75;5020909;28;20425;-43
2022/11/11 07:09:18;;;;;;;;;;;;;;;13.67;100.00;100292.44;5020740;28;20512;-43
2022/11/11 07:11:43;;;;;;;;;;;;;;;13.66;100.00;100292.44;5021357;28;20385;-43
2022/11/11 07:14:08;;;;;;;;;;;;;;;13.89;100.00;100290.19;5020359;28;20783;-43
2022/11/11 07:16:33;;;;;;;;;;;;;;;13.72;100.00;100302.66;5020313;28;20350;-43
2022/11/11 07:18:59;;;;;;;;;;;;;;;13.80;100.00;100301.59;5018981;28;20503;-43
2022/11/11 07:21:24;;;;;;;;;;;;;;;13.59;100.00;100302.97;5020681;28;20735;-43
2022/11/11 07:23:49;;;;;;;;;;;;;;;13.73;100.00;100310.41;5020896;28;20379;-43
2022/11/11 07:26:14;;;;;;;;;;;;;;;13.31;100.00;100302.75;5020219;28;19917;-43
2022/11/11 07:28:40;;;;;;;;;;;;;;;13.62;100.00;100311.56;5019852;28;19919;-43
2022/11/11 07:31:05;;;;;;;;;;;;;;;13.92;100.00;100304.78;5021364;28;19943;-43
2022/11/11 07:33:30;;;;;;;;;;;;;;;13.67;100.00;100310.56;5020779;28;19963;-43
2022/11/11 07:35:55;;;;;;;;;;;;;;;13.38;100.00;100304.28;5019792;28;19917;-43
2022/11/11 07:38:20;;;;;;;;;;;;;;;13.74;100.00;100306.91;5019287;28;19917;-43
2022/11/11 07:40:46;;;;;;;;;;;;;;;13.84;100.00;100307.53;5018211;28;21015;-43
2022/11/11 07:43:11;;;;;;;;;;;;;;;13.32;100.00;100309.63;5020762;28;19917;-43
2022/11/11 07:45:36;;;;;;;;;;;;;;;13.71;100.00;100313.94;5020659;28;19925;-43
2022/11/11 07:48:01;;;;;;;;;;;;;;;13.55;100.00;100310.84;5020400;28;19919;-43
2022/11/11 07:50:27;;;;;;;;;;;;;;;13.84;100.00;100304.94;5019683;28;19917;-43
2022/11/11 07:52:52;;;;;;;;;;;;;;;14.11;100.00;100310.34;5019296;28;20032;-43
2022/11/11 07:55:18;;;;;;;;;;;;;;;13.95;100.00;100309.88;5019572;28;20003;-43
2022/11/11 07:57:43;;;;;;;;;;;;;;;14.05;100.00;100311.34;5020458;28;19917;-43
2022/11/11 08:00:08;;;;;;;;;;;;;;;13.92;100.00;100305.63;5019250;28;19913;-43
2022/11/11 08:02:34;;;;;;;;;;;;;;;13.92;100.00;100310.81;5018842;28;20055;-43
2022/11/11 08:04:59;;;;;;;;;;;;;;;14.04;100.00;100309.63;5020300;28;19921;-43
2022/11/11 08:07:24;;;;;;;;;;;;;;;14.07;100.00;100306.13;5019561;28;19917;-43
2022/11/11 08:09:50;;;;;;;;;;;;;;;13.99;100.00;100307.16;5018145;28;19932;-43
2022/11/11 08:14:59;;;;;;;;;;;;;;;14.76;100.00;100301.72;5019718;28;19927;-43
2022/11/11 08:17:24;;;;;;;;;;;;;;;15.02;100.00;100301.81;5019742;28;19921;-43
2022/11/11 08:19:49;;;;;;;;;;;;;;;14.86;100.00;100308.34;5020101;28;19917;-43
2022/11/11 08:22:15;;;;;;;;;;;;;;;14.87;100.00;100304.88;5019738;28;19924;-43
2022/11/11 08:24:40;;;;;;;;;;;;;;;15.18;100.00;100307.38;5020060;28;19913;-43
2022/11/11 08:27:05;;;;;;;;;;;;;;;15.04;100.00;100300.03;5019789;28;19939;-43
2022/11/11 08:29:30;;;;;;;;;;;;;;;15.51;100.00;100293.41;5017759;28;19994;-43
2022/11/11 08:31:56;;;;;;;;;;;;;;;15.61;100.00;100294.84;5019379;28;19991;-43
2022/11/11 08:34:22;;;;;;;;;;;;;;;15.11;100.00;100307.63;5019281;28;19996;-43
2022/11/11 08:36:47;;;;;;;;;;;;;;;15.44;100.00;100304.00;5018082;28;19916;-43
2022/11/11 08:39:12;;;;;;;;;;;;;;;15.24;100.00;100301.19;5016035;28;19917;-43
2022/11/11 08:41:37;;;;;;;;;;;;;;;15.40;100.00;100307.59;5019676;28;19917;-43
2022/11/11 08:44:03;;;;;;;;;;;;;;;15.71;100.00;100300.59;5019585;28;19917;-43
2022/11/11 08:46:29;;;;;;;;;;;;;;;16.00;100.00;100289.25;5018276;28;19924;-43
2022/11/11 08:48:54;;;;;;;;;;;;;;;15.71;100.00;100308.41;5018428;28;20024;-43
2022/11/11 08:51:19;;;;;;;;;;;;;;;15.66;100.00;100303.31;5020274;28;19945;-43
2022/11/11 08:53:44;;;;;;;;;;;;;;;15.81;100.00;100307.22;5017498;28;19944;-43
2022/11/11 08:56:11;;;;;;;;;;;;;;;15.91;100.00;100303.41;5020001;28;19974;-43
2022/11/11 08:58:36;;;;;;;;;;;;;;;16.01;100.00;100303.94;5016470;28;19928;-43
2022/11/11 09:01:02;;;;;;;;;;;;;;;15.69;100.00;100305.81;5017902;28;19917;-43
2022/11/11 09:03:29;;;;;;;;;;;;;;;16.02;100.00;100297.84;5019609;28;19993;-43
2022/11/11 09:05:54;;;;;;;;;;;;;;;16.17;100.00;100292.16;5017739;28;19917;-43
2022/11/11 09:08:19;;;;;;;;;;;;;;;16.04;100.00;100288.25;5019250;28;19987;-43
2022/11/11 09:10:44;;;;;;;;;;;;;;;16.73;100.00;100284.06;5019329;28;19928;-43
2022/11/11 09:13:10;;;;;;;;;;;;;;;16.22;100.00;100292.84;5018567;28;20394;-43
2022/11/11 09:15:35;;;;;;;;;;;;;;;16.73;100.00;100278.84;5018158;28;19921;-43
2022/11/11 09:18:00;;;;;;;;;;;;;;;16.58;100.00;100281.16;5016618;28;20497;-43
2022/11/11 09:20:26;;;;;;;;;;;;;;;16.38;100.00;100287.94;5018663;28;19917;-43
2022/11/11 09:22:51;;;;;;;;;;;;;;;16.31;100.00;100292.50;5017706;28;19924;-43
2022/11/11 09:25:17;;;;;;;;;;;;;;;16.03;100.00;100302.13;5018364;28;19929;-43
2022/11/11 09:27:42;;;;;;;;;;;;;;;16.96;100.00;100298.00;5017980;28;19917;-44
2022/11/11 09:30:08;;;;;;;;;;;;;;;17.12;100.00;100301.72;5015550;28;19917;-44
2022/11/11 09:32:33;;;;;;;;;;;;;;;17.16;100.00;100297.25;5000619;28;20382;-44
2022/11/11 09:34:59;;;;;;;;;;;;;;;17.22;100.00;100306.56;5018648;28;19920;-43
2022/11/11 09:37:24;;;;;;;;;;;;;;;17.06;100.00;100301.09;5017779;28;20047;-44
2022/11/11 09:39:49;;;;;;;;;;;;;;;16.92;100.00;100297.28;5015742;28;19963;-44
2022/11/11 09:42:27;;;;;;;;;;;;;;;16.37;100.00;100306.19;5019977;28;19917;-44
2022/11/11 09:44:52;;;;;;;;;;;;;;;17.01;100.00;100314.28;5023275;28;19956;-43
2022/11/11 09:47:17;;;;;;;;;;;;;;;17.11;100.00;100313.03;5023130;28;19959;-43
2022/11/11 09:50:02;;;;;;;;;;;;;;;17.14;100.00;100302.50;5021771;28;19955;-43
2022/11/11 09:52:33;;;;;;;;;;;;;;;17.90;100.00;100296.94;5023103;28;19921;-43
2022/11/11 09:55:02;;;;;;;;;;;;;;;17.71;100.00;100312.47;5022540;28;19929;-44
2022/11/11 09:57:40;;;;;;;;;;;;;;;17.75;100.00;100314.88;5021506;28;19925;-43
2022/11/11 10:00:06;;;;;;;;;;;;;;;17.55;100.00;100310.47;5022260;28;19917;-44
2022/11/11 10:02:32;;;;;;;;;;;;;;;18.01;100.00;100307.75;5006106;28;19917;-43
2022/11/11 10:05:07;;;;;;;;;;;;;;;18.04;100.00;100317.22;5023032;28;19940;-43
2022/11/11 10:07:37;;;;;;;;;;;;;;;17.43;100.00;100320.53;5021966;28;19964;-43
2022/11/11 10:10:17;;;;;;;;;;;;;;;17.79;100.00;100318.22;5020827;28;20040;-43
2022/11/11 10:12:45;;;;;;;;;;;;;;;18.42;100.00;100312.13;5022363;28;19975;-43
2022/11/11 10:15:12;;;;;;;;;;;;;;;17.96;100.00;100318.38;5021937;28;19925;-43
2022/11/11 10:17:39;;;;;;;;;;;;;;;18.83;100.00;100323.38;5004799;28;19929;-43
2022/11/11 10:20:13;;;;;;;;;;;;;;;18.33;100.00;100311.59;5022239;28;19917;-43
2022/11/11 10:22:39;;;;;;;;;;;;;;;18.59;100.00;100327.91;5004387;28;20393;-43
2022/11/11 10:25:11;;;;;;;;;;;;;;;18.51;100.00;100328.22;5021154;28;19924;-44
2022/11/11 10:27:37;;;;;;;;;;;;;;;18.47;100.00;100326.66;5022829;28;20011;-43
2022/11/11 10:30:21;;;;;;;;;;;;;;;18.24;99.00;100330.25;5019941;28;20063;-43
2022/11/11 10:32:48;;;;;;;;;;;;;;;18.84;99.22;100334.66;5023023;28;20366;-44
2022/11/11 10:35:15;;;;;;;;;;;;;;;18.51;100.00;100332.59;5020811;28;19917;-43
2022/11/11 10:37:41;;;;;;;;;;;;;;;18.68;99.38;100330.13;5020444;28;20409;-43
2022/11/11 10:40:25;;;;;;;;;;;;;;;18.99;97.29;100323.53;5019565;28;19948;-43
2022/11/11 10:42:50;;;;;;;;;;;;;;;18.41;97.97;100323.50;5020950;28;20544;-43
2022/11/11 10:45:42;;;;;;;;;;;;;;;19.26;98.11;100331.03;5022482;28;20016;-43
2022/11/11 10:48:29;;;;;;;;;;;;;;;19.44;97.19;100324.94;5018008;28;20008;-44
2022/11/11 10:50:55;;;;;;;;;;;;;;;18.32;97.74;100327.34;5022022;28;19917;-43
2022/11/11 10:53:39;;;;;;;;;;;;;;;18.61;97.11;100331.31;5021084;28;19919;-43
2022/11/11 10:56:18;;;;;;;;;;;;;;;18.87;99.63;100339.75;5021665;28;19928;-44
2022/11/11 10:58:48;;;;;;;;;;;;;;;19.05;97.53;100336.31;5021116;28;19943;-43
2022/11/11 11:01:15;;;;;;;;;;;;;;;18.70;97.61;100333.50;5019588;28;19913;-44
2022/11/11 11:03:44;;;;;;;;;;;;;;;18.45;98.99;100332.84;5022048;28;19940;-44
2022/11/11 11:06:09;;;;;;;;;;;;;;;19.07;97.09;100329.25;5020067;28;20298;-43
2022/11/11 11:08:36;;;;;;;;;;;;;;;19.12;98.00;100329.06;5021263;28;19913;-44
2022/11/11 11:11:04;;;;;;;;;;;;;;;19.25;96.17;100324.09;5019243;28;20007;-44
2022/11/11 11:13:49;;;;;;;;;;;;;;;19.74;94.78;100312.16;5020272;28;19956;-43
2022/11/11 11:16:34;;;;;;;;;;;;;;;19.37;95.43;100319.16;5020678;28;19921;-43
2022/11/11 11:19:19;;;;;;;;;;;;;;;19.93;96.47;100326.94;5020213;28;19944;-43
2022/11/11 11:21:51;;;;;;;;;;;;;;;19.06;95.19;100324.09;5019167;28;19921;-43
2022/11/11 11:24:20;;;;;;;;;;;;;;;19.35;95.96;100320.97;5020943;28;20717;-43
2022/11/11 11:26:46;;;;;;;;;;;;;;;19.50;95.47;100329.88;5021616;28;20020;-44
2022/11/11 11:29:11;;;;;;;;;;;;;;;19.58;95.34;100317.25;5019977;28;19963;-44
2022/11/11 11:31:41;;;;;;;;;;;;;;;19.47;94.04;100314.31;5020849;28;19953;-43
2022/11/11 11:34:07;;;;;;;;;;;;;;;19.80;93.73;100306.66;5020800;28;20004;-44
2022/11/11 11:36:32;;;;;;;;;;;;;;;19.62;94.41;100313.59;5020762;28;19917;-43
2022/11/11 11:38:59;;;;;;;;;;;;;;;19.34;94.91;100318.44;5018103;28;19921;-43
2022/11/11 11:41:51;;;;;;;;;;;;;;;19.46;94.42;100317.03;5018215;28;20069;-43
2022/11/11 11:44:29;;;;;;;;;;;;;;;20.03;93.37;100310.72;5019575;28;19917;-43
2022/11/11 11:46:56;;;;;;;;;;;;;;;19.27;95.27;100323.09;5019163;28;19982;-44
2022/11/11 11:49:22;;;;;;;;;;;;;;;19.52;93.15;100312.31;5018550;28;19960;-43
2022/11/11 11:51:51;;;;;;;;;;;;;;;20.11;94.38;100314.72;5021169;28;20429;-43
2022/11/11 11:54:17;;;;;;;;;;;;;;;20.19;92.60;100317.81;5018592;28;20463;-43
2022/11/11 11:56:47;;;;;;;;;;;;;;;20.06;92.63;100314.97;5020697;28;20018;-44
2022/11/11 11:59:31;;;;;;;;;;;;;;;20.18;92.92;100306.47;5018583;28;20275;-44
2022/11/11 12:02:15;;;;;;;;;;;;;;;20.11;92.66;100309.50;5020300;28;19917;-44
2022/11/11 12:05:10;;;;;;;;;;;;;;;20.15;93.26;100313.66;5019207;28;19924;-43
2022/11/11 12:07:53;;;;;;;;;;;;;;;20.26;92.29;100303.50;5015665;28;19917;-43
2022/11/11 12:10:42;;;;;;;;;;;;;;;20.59;92.24;100302.69;5018995;28;19924;-43
2022/11/11 12:13:25;;;;;;;;;;;;;;;20.18;92.41;100310.88;5016990;28;19917;-44
2022/11/11 12:16:09;;;;;;;;;;;;;;;20.02;93.11;100303.78;5020621;28;19921;-43
2022/11/11 12:18:49;;;;;;;;;;;;;;;20.59;91.76;100289.59;5019170;28;20397;-44
2022/11/11 12:21:15;;;;;;;;;;;;;;;20.20;90.98;100293.34;5019793;28;19916;-43
2022/11/11 12:23:49;;;;;;;;;;;;;;;20.22;91.08;100296.72;5020306;28;19991;-43
2022/11/11 12:26:23;;;;;;;;;;;;;;;20.26;91.69;100300.88;5018694;28;20016;-43
2022/11/11 12:29:04;;;;;;;;;;;;;;;20.31;92.84;100301.47;5001583;28;19917;-44
2022/11/11 12:31:29;;;;;;;;;;;;;;;19.89;90.10;100294.91;5019928;28;19924;-44
2022/11/11 12:34:00;;;;;;;;;;;;;;;19.57;88.87;100294.69;5019889;28;20406;-44
2022/11/11 12:36:31;;;;;;;;;;;;;;;19.94;89.97;100286.81;5018170;28;19917;-44
2022/11/11 12:38:57;;;;;;;;;;;;;;;19.71;89.45;100288.81;5016939;28;19936;-44
2022/11/11 12:41:35;;;;;;;;;;;;;;;19.66;89.67;100288.16;5017125;28;19917;-44
2022/11/11 12:44:03;;;;;;;;;;;;;;;19.81;89.51;100281.34;5019217;28;19917;-44
2022/11/11 12:46:47;;;;;;;;;;;;;;;20.02;87.63;100275.03;5013563;28;19927;-44
2022/11/11 12:49:29;;;;;;;;;;;;;;;19.80;88.88;100279.66;5011160;28;19975;-44
2022/11/11 12:52:13;;;;;;;;;;;;;;;19.68;90.55;100285.44;5012693;28;19921;-43
2022/11/11 12:54:38;;;;;;;;;;;;;;;19.60;89.22;100276.22;5017499;28;20440;-44
2022/11/11 12:57:10;;;;;;;;;;;;;;;20.12;88.75;100274.59;5018313;28;19925;-44
2022/11/11 12:59:53;;;;;;;;;;;;;;;19.67;88.92;100279.38;5018951;28;20343;-43
2022/11/11 13:02:30;;;;;;;;;;;;;;;20.13;91.36;100286.72;5017891;28;20432;-42
2022/11/11 13:05:14;;;;;;;;;;;;;;;19.91;88.97;100272.13;5018220;28;19924;-43
2022/11/11 13:07:48;;;;;;;;;;;;;;;19.66;89.66;100277.72;5019563;28;19924;-42
2022/11/11 13:10:19;;;;;;;;;;;;;;;19.71;89.82;100280.13;5019098;28;19917;-42
2022/11/11 13:13:13;;;;;;;;;;;;;;;19.63;90.04;100283.91;5016879;28;19927;-42
2022/11/11 13:15:39;;;;;;;;;;;;;;;19.51;92.25;100283.69;5013980;28;19925;-42
2022/11/11 13:18:11;;;;;;;;;;;;;;;20.19;87.70;100276.81;5019354;28;19948;-42
2022/11/11 13:20:37;;;;;;;;;;;;;;;19.90;88.18;100285.28;5018076;28;19972;-42
2022/11/11 13:23:02;;;;;;;;;;;;;;;19.15;87.92;100282.72;5019254;28;19956;-42
2022/11/11 13:25:29;;;;;;;;;;;;;;;19.68;87.44;100293.28;5018989;28;19923;-43
2022/11/11 13:27:59;;;;;;;;;;;;;;;20.09;88.00;100290.41;5016447;28;19987;-43
2022/11/11 13:30:31;;;;;;;;;;;;;;;20.01;89.18;100294.28;5016597;28;19917;-42
2022/11/11 13:33:00;;;;;;;;;;;;;;;20.11;87.30;100293.81;5018569;28;19990;-42
2022/11/11 13:35:25;;;;;;;;;;;;;;;20.56;86.55;100284.50;5019516;28;20808;-42
2022/11/11 13:37:51;;;;;;;;;;;;;;;20.55;87.55;100298.50;5018822;28;19921;-42
2022/11/11 13:40:33;;;;;;;;;;;;;;;20.22;87.31;100294.94;5015051;28;19932;-42
2022/11/11 13:42:58;;;;;;;;;;;;;;;20.23;89.29;100308.84;5016861;28;20057;-42
2022/11/11 13:45:28;;;;;;;;;;;;;;;20.44;87.69;100296.47;5019313;28;20446;-42
2022/11/11 13:47:53;;;;;;;;;;;;;;;19.95;88.79;100305.03;5018241;28;19959;-42
2022/11/11 13:50:51;;;;;;;;;;;;;;;20.17;90.76;100319.66;5016153;28;20374;-42